sensor_id;sensor_type;location;lat;lon;timestamp;temperature;humidity
33717;DHT22;20046;50.746;7.072;2023-12-29T00:01:31;10.00;99.90
33717;DHT22;20046;50.746;7.072;2023-12-29T00:03:57;10.00;99.90
33717;DHT22;20046;50.746;7.072;2023-12-29T00:06:23;10.10;99.90
33717;DHT22;20046;50.746;7.072;2023-12-29T00:08:48;10.10;99.90
33717;DHT22;20046;50.746;7.072;2023-12-29T00:11:20;10.10;99.90
33717;DHT22;20046;50.746;7.072;2023-12-29T00:13:47;10.10;99.90
33717;DHT22;20046;50.746;7.072;2023-12-29T00:16:13;10.10;99.90
33717;DHT22;20046;50.746;7.072;2023-12-29T00:18:38;10.10;99.90
33717;DHT22;20046;50.746;7.072;2023-12-29T00:21:05;10.20;99.90
33717;DHT22;20046;50.746;7.072;2023-12-29T00:23:31;10.20;99.90
33717;DHT22;20046;50.746;7.072;2023-12-29T00:25:56;10.30;99.90
33717;DHT22;20046;50.746;7.072;2023-12-29T00:28:22;10.30;99.90
33717;DHT22;20046;50.746;7.072;2023-12-29T00:30:47;10.40;99.90
33717;DHT22;20046;50.746;7.072;2023-12-29T00:33:13;10.40;99.90
33717;DHT22;20046;50.746;7.072;2023-12-29T00:35:39;10.40;99.90
33717;DHT22;20046;50.746;7.072;2023-12-29T00:38:05;10.50;99.90
33717;DHT22;20046;50.746;7.072;2023-12-29T00:40:31;10.50;99.90
33717;DHT22;20046;50.746;7.072;2023-12-29T00:42:57;10.40;99.90
33717;DHT22;20046;50.746;7.072;2023-12-29T00:45:23;10.40;99.90
33717;DHT22;20046;50.746;7.072;2023-12-29T00:47:48;10.40;99.90
33717;DHT22;20046;50.746;7.072;2023-12-29T00:50:16;10.30;99.90
33717;DHT22;20046;50.746;7.072;2023-12-29T00:52:41;10.30;99.90
33717;DHT22;20046;50.746;7.072;2023-12-29T00:55:07;10.30;99.90
33717;DHT22;20046;50.746;7.072;2023-12-29T00:57:33;10.30;99.90
33717;DHT22;20046;50.746;7.072;2023-12-29T01:00:00;10.30;99.90
33717;DHT22;20046;50.746;7.072;2023-12-29T01:02:25;10.30;99.90
33717;DHT22;20046;50.746;7.072;2023-12-29T01:04:51;10.40;99.90
33717;DHT22;20046;50.746;7.072;2023-12-29T01:07:17;10.40;99.90
33717;DHT22;20046;50.746;7.072;2023-12-29T01:09:42;10.40;99.90
33717;DHT22;20046;50.746;7.072;2023-12-29T01:12:08;10.40;99.90
33717;DHT22;20046;50.746;7.072;2023-12-29T01:14:33;10.40;99.90
33717;DHT22;20046;50.746;7.072;2023-12-29T01:16:59;10.40;99.90
33717;DHT22;20046;50.746;7.072;2023-12-29T01:19:25;10.40;99.90
33717;DHT22;20046;50.746;7.072;2023-12-29T01:21:50;10.40;99.90
33717;DHT22;20046;50.746;7.072;2023-12-29T01:24:16;10.50;99.90
33717;DHT22;20046;50.746;7.072;2023-12-29T01:26:41;10.50;99.90
33717;DHT22;20046;50.746;7.072;2023-12-29T01:29:07;10.60;99.90
33717;DHT22;20046;50.746;7.072;2023-12-29T01:31:32;10.60;99.90
33717;DHT22;20046;50.746;7.072;2023-12-29T01:33:58;10.60;99.90
33717;DHT22;20046;50.746;7.072;2023-12-29T01:36:24;10.70;99.90
33717;DHT22;20046;50.746;7.072;2023-12-29T01:38:50;10.70;99.90
33717;DHT22;20046;50.746;7.072;2023-12-29T01:41:15;10.70;99.90
33717;DHT22;20046;50.746;7.072;2023-12-29T01:46:22;10.80;99.90
33717;DHT22;20046;50.746;7.072;2023-12-29T01:48:48;10.80;99.90
33717;DHT22;20046;50.746;7.072;2023-12-29T01:51:15;10.80;99.90
33717;DHT22;20046;50.746;7.072;2023-12-29T01:53:40;10.80;99.90
33717;DHT22;20046;50.746;7.072;2023-12-29T01:56:07;10.80;99.90
33717;DHT22;20046;50.746;7.072;2023-12-29T01:58:33;10.80;99.90
33717;DHT22;20046;50.746;7.072;2023-12-29T02:01:00;10.90;99.90
33717;DHT22;20046;50.746;7.072;2023-12-29T02:03:27;10.90;99.90
33717;DHT22;20046;50.746;7.072;2023-12-29T02:05:54;10.90;99.90
33717;DHT22;20046;50.746;7.072;2023-12-29T02:08:21;10.90;99.90
33717;DHT22;20046;50.746;7.072;2023-12-29T02:10:48;10.90;99.90
33717;DHT22;20046;50.746;7.072;2023-12-29T02:13:14;11.00;99.90
33717;DHT22;20046;50.746;7.072;2023-12-29T02:15:40;10.90;99.90
33717;DHT22;20046;50.746;7.072;2023-12-29T02:18:06;11.00;99.90
33717;DHT22;20046;50.746;7.072;2023-12-29T02:20:33;11.00;99.90
33717;DHT22;20046;50.746;7.072;2023-12-29T02:22:58;11.00;99.90
33717;DHT22;20046;50.746;7.072;2023-12-29T02:25:24;11.00;99.90
33717;DHT22;20046;50.746;7.072;2023-12-29T02:27:55;11.00;99.90
33717;DHT22;20046;50.746;7.072;2023-12-29T02:32:54;11.00;99.90
33717;DHT22;20046;50.746;7.072;2023-12-29T02:35:28;11.00;99.90
33717;DHT22;20046;50.746;7.072;2023-12-29T02:37:55;11.00;99.90
33717;DHT22;20046;50.746;7.072;2023-12-29T02:40:21;11.00;99.90
33717;DHT22;20046;50.746;7.072;2023-12-29T02:42:48;11.00;99.90
33717;DHT22;20046;50.746;7.072;2023-12-29T02:45:17;11.00;99.90
33717;DHT22;20046;50.746;7.072;2023-12-29T02:47:44;11.00;99.90
33717;DHT22;20046;50.746;7.072;2023-12-29T02:50:10;11.00;99.90
33717;DHT22;20046;50.746;7.072;2023-12-29T02:52:36;10.90;99.90
33717;DHT22;20046;50.746;7.072;2023-12-29T02:55:01;10.90;99.90
33717;DHT22;20046;50.746;7.072;2023-12-29T02:57:27;11.00;99.90
33717;DHT22;20046;50.746;7.072;2023-12-29T02:59:53;11.00;99.90
33717;DHT22;20046;50.746;7.072;2023-12-29T03:02:20;11.00;99.90
33717;DHT22;20046;50.746;7.072;2023-12-29T03:04:46;11.00;99.90
33717;DHT22;20046;50.746;7.072;2023-12-29T03:07:11;11.10;99.90
33717;DHT22;20046;50.746;7.072;2023-12-29T03:09:37;11.00;99.90
33717;DHT22;20046;50.746;7.072;2023-12-29T03:12:03;11.00;99.90
33717;DHT22;20046;50.746;7.072;2023-12-29T03:14:28;11.00;99.90
33717;DHT22;20046;50.746;7.072;2023-12-29T03:16:54;11.00;99.90
33717;DHT22;20046;50.746;7.072;2023-12-29T03:19:20;10.90;99.90
33717;DHT22;20046;50.746;7.072;2023-12-29T03:21:46;11.00;99.90
33717;DHT22;20046;50.746;7.072;2023-12-29T03:24:11;10.90;99.90
33717;DHT22;20046;50.746;7.072;2023-12-29T03:26:37;10.90;99.90
33717;DHT22;20046;50.746;7.072;2023-12-29T03:29:03;10.90;99.90
33717;DHT22;20046;50.746;7.072;2023-12-29T03:31:28;10.90;99.90
33717;DHT22;20046;50.746;7.072;2023-12-29T03:33:54;10.90;99.90
33717;DHT22;20046;50.746;7.072;2023-12-29T03:36:19;10.90;99.90
33717;DHT22;20046;50.746;7.072;2023-12-29T03:38:45;11.00;99.90
33717;DHT22;20046;50.746;7.072;2023-12-29T03:41:11;11.00;99.90
33717;DHT22;20046;50.746;7.072;2023-12-29T03:43:36;11.00;99.90
33717;DHT22;20046;50.746;7.072;2023-12-29T03:46:02;11.00;99.90
33717;DHT22;20046;50.746;7.072;2023-12-29T03:48:27;11.00;99.90
33717;DHT22;20046;50.746;7.072;2023-12-29T03:50:53;11.00;99.90
33717;DHT22;20046;50.746;7.072;2023-12-29T03:53:19;11.10;99.90
33717;DHT22;20046;50.746;7.072;2023-12-29T03:55:44;11.10;99.90
33717;DHT22;20046;50.746;7.072;2023-12-29T03:58:10;11.20;99.90
33717;DHT22;20046;50.746;7.072;2023-12-29T04:00:36;11.20;99.90
33717;DHT22;20046;50.746;7.072;2023-12-29T04:03:02;11.10;99.90
33717;DHT22;20046;50.746;7.072;2023-12-29T04:05:27;11.10;99.90
33717;DHT22;20046;50.746;7.072;2023-12-29T04:07:53;11.10;99.90
33717;DHT22;20046;50.746;7.072;2023-12-29T04:10:18;11.10;99.90
33717;DHT22;20046;50.746;7.072;2023-12-29T04:12:44;11.10;99.90
33717;DHT22;20046;50.746;7.072;2023-12-29T04:15:11;11.10;99.90
33717;DHT22;20046;50.746;7.072;2023-12-29T04:17:36;11.10;99.90
33717;DHT22;20046;50.746;7.072;2023-12-29T04:20:03;11.00;99.90
33717;DHT22;20046;50.746;7.072;2023-12-29T04:22:28;11.00;99.90
33717;DHT22;20046;50.746;7.072;2023-12-29T04:24:54;11.00;99.90
33717;DHT22;20046;50.746;7.072;2023-12-29T04:27:21;10.90;99.90
33717;DHT22;20046;50.746;7.072;2023-12-29T04:29:46;10.90;99.90
33717;DHT22;20046;50.746;7.072;2023-12-29T04:32:12;10.90;99.90
33717;DHT22;20046;50.746;7.072;2023-12-29T04:34:37;10.80;99.90
33717;DHT22;20046;50.746;7.072;2023-12-29T04:37:03;10.80;99.90
33717;DHT22;20046;50.746;7.072;2023-12-29T04:39:29;10.80;99.90
33717;DHT22;20046;50.746;7.072;2023-12-29T04:41:54;10.80;99.90
33717;DHT22;20046;50.746;7.072;2023-12-29T04:44:20;10.80;99.90
33717;DHT22;20046;50.746;7.072;2023-12-29T04:46:45;10.80;99.90
33717;DHT22;20046;50.746;7.072;2023-12-29T04:49:11;10.80;99.90
33717;DHT22;20046;50.746;7.072;2023-12-29T04:51:36;10.80;99.90
33717;DHT22;20046;50.746;7.072;2023-12-29T04:54:02;10.80;99.90
33717;DHT22;20046;50.746;7.072;2023-12-29T04:56:27;10.80;99.90
33717;DHT22;20046;50.746;7.072;2023-12-29T04:58:53;10.70;99.90
33717;DHT22;20046;50.746;7.072;2023-12-29T05:01:19;10.80;99.90
33717;DHT22;20046;50.746;7.072;2023-12-29T05:03:44;10.70;99.90
33717;DHT22;20046;50.746;7.072;2023-12-29T05:06:10;10.80;99.90
33717;DHT22;20046;50.746;7.072;2023-12-29T05:08:35;10.80;99.90
33717;DHT22;20046;50.746;7.072;2023-12-29T05:11:01;10.80;99.90
33717;DHT22;20046;50.746;7.072;2023-12-29T05:13:27;10.80;99.90
33717;DHT22;20046;50.746;7.072;2023-12-29T05:15:52;10.90;99.90
33717;DHT22;20046;50.746;7.072;2023-12-29T05:18:18;10.90;99.90
33717;DHT22;20046;50.746;7.072;2023-12-29T05:20:44;10.90;99.90
33717;DHT22;20046;50.746;7.072;2023-12-29T05:23:09;10.90;99.90
33717;DHT22;20046;50.746;7.072;2023-12-29T05:25:35;10.90;99.90
33717;DHT22;20046;50.746;7.072;2023-12-29T05:28:01;10.90;99.90
33717;DHT22;20046;50.746;7.072;2023-12-29T05:30:26;10.90;99.90
33717;DHT22;20046;50.746;7.072;2023-12-29T05:32:53;10.90;99.90
33717;DHT22;20046;50.746;7.072;2023-12-29T05:35:18;10.80;99.90
33717;DHT22;20046;50.746;7.072;2023-12-29T05:37:44;10.80;99.90
33717;DHT22;20046;50.746;7.072;2023-12-29T05:40:10;10.80;99.90
33717;DHT22;20046;50.746;7.072;2023-12-29T05:42:36;10.80;99.90
33717;DHT22;20046;50.746;7.072;2023-12-29T05:45:02;10.80;99.90
33717;DHT22;20046;50.746;7.072;2023-12-29T05:47:27;10.80;99.90
33717;DHT22;20046;50.746;7.072;2023-12-29T05:49:53;10.80;99.90
33717;DHT22;20046;50.746;7.072;2023-12-29T05:52:19;10.80;99.90
33717;DHT22;20046;50.746;7.072;2023-12-29T05:54:44;10.80;99.90
33717;DHT22;20046;50.746;7.072;2023-12-29T05:57:10;10.80;99.90
33717;DHT22;20046;50.746;7.072;2023-12-29T05:59:36;10.80;99.90
33717;DHT22;20046;50.746;7.072;2023-12-29T06:02:01;10.70;99.90
33717;DHT22;20046;50.746;7.072;2023-12-29T06:04:28;10.80;99.90
33717;DHT22;20046;50.746;7.072;2023-12-29T06:06:53;10.70;99.90
33717;DHT22;20046;50.746;7.072;2023-12-29T06:09:19;10.70;99.90
33717;DHT22;20046;50.746;7.072;2023-12-29T06:11:45;10.80;99.90
33717;DHT22;20046;50.746;7.072;2023-12-29T06:14:10;10.80;99.90
33717;DHT22;20046;50.746;7.072;2023-12-29T06:16:36;10.80;99.90
33717;DHT22;20046;50.746;7.072;2023-12-29T06:19:01;10.80;99.90
33717;DHT22;20046;50.746;7.072;2023-12-29T06:21:27;10.80;99.90
33717;DHT22;20046;50.746;7.072;2023-12-29T06:23:53;10.80;99.90
33717;DHT22;20046;50.746;7.072;2023-12-29T06:26:19;10.80;99.90
33717;DHT22;20046;50.746;7.072;2023-12-29T06:28:46;10.70;99.90
33717;DHT22;20046;50.746;7.072;2023-12-29T06:31:12;10.70;99.90
33717;DHT22;20046;50.746;7.072;2023-12-29T06:33:43;10.70;99.90
33717;DHT22;20046;50.746;7.072;2023-12-29T06:36:10;10.70;99.90
33717;DHT22;20046;50.746;7.072;2023-12-29T06:38:36;10.70;99.90
33717;DHT22;20046;50.746;7.072;2023-12-29T06:41:03;10.70;99.90
33717;DHT22;20046;50.746;7.072;2023-12-29T06:43:29;10.70;99.90
33717;DHT22;20046;50.746;7.072;2023-12-29T06:45:55;10.70;99.90
33717;DHT22;20046;50.746;7.072;2023-12-29T06:48:20;10.60;99.90
33717;DHT22;20046;50.746;7.072;2023-12-29T06:50:46;10.60;99.90
33717;DHT22;20046;50.746;7.072;2023-12-29T06:53:12;10.60;99.90
33717;DHT22;20046;50.746;7.072;2023-12-29T06:55:37;10.60;99.90
33717;DHT22;20046;50.746;7.072;2023-12-29T06:58:04;10.60;99.90
33717;DHT22;20046;50.746;7.072;2023-12-29T07:00:30;10.60;99.90
33717;DHT22;20046;50.746;7.072;2023-12-29T07:02:55;10.60;99.90
33717;DHT22;20046;50.746;7.072;2023-12-29T07:05:21;10.60;99.90
33717;DHT22;20046;50.746;7.072;2023-12-29T07:07:47;10.60;99.90
33717;DHT22;20046;50.746;7.072;2023-12-29T07:10:13;10.60;99.90
33717;DHT22;20046;50.746;7.072;2023-12-29T07:12:40;10.60;99.90
33717;DHT22;20046;50.746;7.072;2023-12-29T07:15:06;10.50;99.90
33717;DHT22;20046;50.746;7.072;2023-12-29T07:17:32;10.50;99.90
33717;DHT22;20046;50.746;7.072;2023-12-29T07:19:57;10.50;99.90
33717;DHT22;20046;50.746;7.072;2023-12-29T07:22:23;10.50;99.90
33717;DHT22;20046;50.746;7.072;2023-12-29T07:24:49;10.50;99.90
33717;DHT22;20046;50.746;7.072;2023-12-29T07:27:15;10.50;99.90
33717;DHT22;20046;50.746;7.072;2023-12-29T07:29:41;10.50;99.90
33717;DHT22;20046;50.746;7.072;2023-12-29T07:32:06;10.60;99.90
33717;DHT22;20046;50.746;7.072;2023-12-29T07:34:32;10.50;99.90
33717;DHT22;20046;50.746;7.072;2023-12-29T07:36:58;10.50;99.90
33717;DHT22;20046;50.746;7.072;2023-12-29T07:39:24;10.50;99.90
33717;DHT22;20046;50.746;7.072;2023-12-29T07:41:50;10.60;99.90
33717;DHT22;20046;50.746;7.072;2023-12-29T07:44:17;10.60;99.90
33717;DHT22;20046;50.746;7.072;2023-12-29T07:46:43;10.60;99.90
33717;DHT22;20046;50.746;7.072;2023-12-29T07:49:09;10.60;99.90
33717;DHT22;20046;50.746;7.072;2023-12-29T07:51:39;10.60;99.90
33717;DHT22;20046;50.746;7.072;2023-12-29T07:54:06;10.60;99.90
33717;DHT22;20046;50.746;7.072;2023-12-29T07:56:32;10.60;99.90
33717;DHT22;20046;50.746;7.072;2023-12-29T07:58:58;10.60;99.90
33717;DHT22;20046;50.746;7.072;2023-12-29T08:01:23;10.70;99.90
33717;DHT22;20046;50.746;7.072;2023-12-29T08:03:49;10.70;99.90
33717;DHT22;20046;50.746;7.072;2023-12-29T08:06:14;10.80;99.90
33717;DHT22;20046;50.746;7.072;2023-12-29T08:08:40;10.80;99.90
33717;DHT22;20046;50.746;7.072;2023-12-29T08:11:15;10.80;99.90
33717;DHT22;20046;50.746;7.072;2023-12-29T08:13:43;10.80;99.90
33717;DHT22;20046;50.746;7.072;2023-12-29T08:16:09;10.80;99.90
33717;DHT22;20046;50.746;7.072;2023-12-29T08:18:34;10.80;99.90
33717;DHT22;20046;50.746;7.072;2023-12-29T08:21:01;10.90;99.90
33717;DHT22;20046;50.746;7.072;2023-12-29T08:23:26;10.90;99.90
33717;DHT22;20046;50.746;7.072;2023-12-29T08:25:52;11.00;99.90
33717;DHT22;20046;50.746;7.072;2023-12-29T08:28:18;11.00;99.90
33717;DHT22;20046;50.746;7.072;2023-12-29T08:30:43;11.10;99.90
33717;DHT22;20046;50.746;7.072;2023-12-29T08:33:11;11.10;99.90
33717;DHT22;20046;50.746;7.072;2023-12-29T08:35:41;11.20;99.90
33717;DHT22;20046;50.746;7.072;2023-12-29T08:38:06;11.20;99.90
33717;DHT22;20046;50.746;7.072;2023-12-29T08:40:32;11.30;99.90
33717;DHT22;20046;50.746;7.072;2023-12-29T08:42:57;11.30;99.90
33717;DHT22;20046;50.746;7.072;2023-12-29T08:45:23;11.30;99.90
33717;DHT22;20046;50.746;7.072;2023-12-29T08:47:49;11.30;99.90
33717;DHT22;20046;50.746;7.072;2023-12-29T08:50:15;11.40;99.90
33717;DHT22;20046;50.746;7.072;2023-12-29T08:52:41;11.40;99.90
33717;DHT22;20046;50.746;7.072;2023-12-29T08:55:07;11.40;99.90
33717;DHT22;20046;50.746;7.072;2023-12-29T08:57:33;11.40;99.90
33717;DHT22;20046;50.746;7.072;2023-12-29T08:59:59;11.40;99.90
33717;DHT22;20046;50.746;7.072;2023-12-29T09:02:25;11.40;99.90
33717;DHT22;20046;50.746;7.072;2023-12-29T09:04:50;11.50;99.90
33717;DHT22;20046;50.746;7.072;2023-12-29T09:07:16;11.40;99.90
33717;DHT22;20046;50.746;7.072;2023-12-29T09:09:42;11.50;99.90
33717;DHT22;20046;50.746;7.072;2023-12-29T09:12:07;11.50;99.90
33717;DHT22;20046;50.746;7.072;2023-12-29T09:14:33;11.60;99.90
33717;DHT22;20046;50.746;7.072;2023-12-29T09:17:00;11.60;99.90
33717;DHT22;20046;50.746;7.072;2023-12-29T09:19:25;11.70;99.90
33717;DHT22;20046;50.746;7.072;2023-12-29T09:21:51;11.80;99.90
33717;DHT22;20046;50.746;7.072;2023-12-29T09:24:17;11.90;99.90
33717;DHT22;20046;50.746;7.072;2023-12-29T09:26:42;12.00;99.90
33717;DHT22;20046;50.746;7.072;2023-12-29T09:29:08;12.10;99.90
33717;DHT22;20046;50.746;7.072;2023-12-29T09:31:34;12.10;99.90
33717;DHT22;20046;50.746;7.072;2023-12-29T09:34:00;12.10;99.90
33717;DHT22;20046;50.746;7.072;2023-12-29T09:36:26;12.10;99.90
33717;DHT22;20046;50.746;7.072;2023-12-29T09:38:51;12.00;99.90
33717;DHT22;20046;50.746;7.072;2023-12-29T09:41:18;11.90;99.90
33717;DHT22;20046;50.746;7.072;2023-12-29T09:43:48;11.90;99.90
33717;DHT22;20046;50.746;7.072;2023-12-29T09:46:17;11.90;99.90
33717;DHT22;20046;50.746;7.072;2023-12-29T09:48:46;12.00;99.90
33717;DHT22;20046;50.746;7.072;2023-12-29T09:51:12;12.20;99.90
33717;DHT22;20046;50.746;7.072;2023-12-29T09:53:38;12.30;99.90
33717;DHT22;20046;50.746;7.072;2023-12-29T09:56:08;12.40;99.90
33717;DHT22;20046;50.746;7.072;2023-12-29T09:58:34;12.40;99.90
33717;DHT22;20046;50.746;7.072;2023-12-29T10:01:04;12.50;99.90
33717;DHT22;20046;50.746;7.072;2023-12-29T10:03:33;12.50;99.90
33717;DHT22;20046;50.746;7.072;2023-12-29T10:06:00;12.50;99.90
33717;DHT22;20046;50.746;7.072;2023-12-29T10:08:29;12.40;99.90
33717;DHT22;20046;50.746;7.072;2023-12-29T10:10:58;12.30;99.90
33717;DHT22;20046;50.746;7.072;2023-12-29T10:13:25;12.20;99.90
33717;DHT22;20046;50.746;7.072;2023-12-29T10:16:13;12.20;99.90
33717;DHT22;20046;50.746;7.072;2023-12-29T10:18:47;12.10;99.90
33717;DHT22;20046;50.746;7.072;2023-12-29T10:21:23;12.20;99.90
33717;DHT22;20046;50.746;7.072;2023-12-29T10:24:18;12.20;99.90
33717;DHT22;20046;50.746;7.072;2023-12-29T10:26:44;12.20;99.90
33717;DHT22;20046;50.746;7.072;2023-12-29T10:29:11;12.20;99.90
33717;DHT22;20046;50.746;7.072;2023-12-29T10:31:38;12.10;99.90
33717;DHT22;20046;50.746;7.072;2023-12-29T10:34:20;12.20;99.90
33717;DHT22;20046;50.746;7.072;2023-12-29T10:36:49;12.30;99.90
33717;DHT22;20046;50.746;7.072;2023-12-29T10:39:15;12.40;99.90
33717;DHT22;20046;50.746;7.072;2023-12-29T10:41:41;12.70;99.90
33717;DHT22;20046;50.746;7.072;2023-12-29T10:44:07;12.90;99.90
33717;DHT22;20046;50.746;7.072;2023-12-29T10:46:33;13.00;99.90
33717;DHT22;20046;50.746;7.072;2023-12-29T10:49:09;13.40;99.90
33717;DHT22;20046;50.746;7.072;2023-12-29T10:51:35;14.00;99.90
33717;DHT22;20046;50.746;7.072;2023-12-29T10:54:02;14.30;99.90
33717;DHT22;20046;50.746;7.072;2023-12-29T10:56:29;14.90;99.90
33717;DHT22;20046;50.746;7.072;2023-12-29T10:59:03;15.60;99.90
33717;DHT22;20046;50.746;7.072;2023-12-29T11:01:33;16.40;99.90
33717;DHT22;20046;50.746;7.072;2023-12-29T11:04:04;16.80;99.90
33717;DHT22;20046;50.746;7.072;2023-12-29T11:06:42;16.60;99.90
33717;DHT22;20046;50.746;7.072;2023-12-29T11:09:10;17.10;99.90
33717;DHT22;20046;50.746;7.072;2023-12-29T11:11:37;16.80;99.90
33717;DHT22;20046;50.746;7.072;2023-12-29T11:14:03;16.00;99.90
33717;DHT22;20046;50.746;7.072;2023-12-29T11:16:30;15.10;99.90
33717;DHT22;20046;50.746;7.072;2023-12-29T11:18:58;14.70;99.90
33717;DHT22;20046;50.746;7.072;2023-12-29T11:21:26;14.30;99.90
33717;DHT22;20046;50.746;7.072;2023-12-29T11:23:52;14.00;99.90
33717;DHT22;20046;50.746;7.072;2023-12-29T11:26:18;13.70;99.90
33717;DHT22;20046;50.746;7.072;2023-12-29T11:28:46;13.50;99.90
33717;DHT22;20046;50.746;7.072;2023-12-29T11:31:15;13.50;99.90
33717;DHT22;20046;50.746;7.072;2023-12-29T11:33:45;13.50;99.90
33717;DHT22;20046;50.746;7.072;2023-12-29T11:36:21;13.40;99.90
33717;DHT22;20046;50.746;7.072;2023-12-29T11:41:45;13.50;99.90
33717;DHT22;20046;50.746;7.072;2023-12-29T11:44:12;14.00;99.90
33717;DHT22;20046;50.746;7.072;2023-12-29T11:46:49;14.50;99.90
33717;DHT22;20046;50.746;7.072;2023-12-29T11:49:14;15.20;99.90
33717;DHT22;20046;50.746;7.072;2023-12-29T11:54:06;15.10;99.90
33717;DHT22;20046;50.746;7.072;2023-12-29T11:56:37;15.00;99.90
33717;DHT22;20046;50.746;7.072;2023-12-29T11:59:32;14.80;99.90
33717;DHT22;20046;50.746;7.072;2023-12-29T12:02:27;14.60;99.90
33717;DHT22;20046;50.746;7.072;2023-12-29T12:04:52;14.30;99.90
33717;DHT22;20046;50.746;7.072;2023-12-29T12:12:58;14.70;99.90
33717;DHT22;20046;50.746;7.072;2023-12-29T12:18:03;15.50;99.90
33717;DHT22;20046;50.746;7.072;2023-12-29T12:20:31;15.20;99.90
33717;DHT22;20046;50.746;7.072;2023-12-29T12:23:07;15.00;99.90
33717;DHT22;20046;50.746;7.072;2023-12-29T12:25:34;15.60;99.90
33717;DHT22;20046;50.746;7.072;2023-12-29T12:28:05;15.70;99.90
33717;DHT22;20046;50.746;7.072;2023-12-29T12:30:33;15.30;99.90
33717;DHT22;20046;50.746;7.072;2023-12-29T12:33:00;15.60;99.90
33717;DHT22;20046;50.746;7.072;2023-12-29T12:35:26;15.90;99.90
33717;DHT22;20046;50.746;7.072;2023-12-29T12:38:08;15.90;99.90
33717;DHT22;20046;50.746;7.072;2023-12-29T12:40:34;16.50;99.90
33717;DHT22;20046;50.746;7.072;2023-12-29T12:43:01;16.40;99.90
33717;DHT22;20046;50.746;7.072;2023-12-29T12:45:27;16.00;99.90
33717;DHT22;20046;50.746;7.072;2023-12-29T12:48:12;15.60;99.90
33717;DHT22;20046;50.746;7.072;2023-12-29T12:50:43;15.30;99.90
33717;DHT22;20046;50.746;7.072;2023-12-29T12:53:12;15.00;99.90
33717;DHT22;20046;50.746;7.072;2023-12-29T12:55:40;14.80;99.90
33717;DHT22;20046;50.746;7.072;2023-12-29T12:58:07;14.50;99.90
33717;DHT22;20046;50.746;7.072;2023-12-29T13:00:33;14.30;99.90
33717;DHT22;20046;50.746;7.072;2023-12-29T13:03:00;14.10;99.90
33717;DHT22;20046;50.746;7.072;2023-12-29T13:05:26;14.00;99.90
33717;DHT22;20046;50.746;7.072;2023-12-29T13:07:54;13.80;99.90
33717;DHT22;20046;50.746;7.072;2023-12-29T13:10:22;13.70;99.90
33717;DHT22;20046;50.746;7.072;2023-12-29T13:12:54;13.50;99.90
33717;DHT22;20046;50.746;7.072;2023-12-29T13:15:20;13.50;99.90
33717;DHT22;20046;50.746;7.072;2023-12-29T13:17:53;13.40;99.90
33717;DHT22;20046;50.746;7.072;2023-12-29T13:20:19;13.40;99.90
33717;DHT22;20046;50.746;7.072;2023-12-29T13:22:51;13.20;99.90
33717;DHT22;20046;50.746;7.072;2023-12-29T13:25:25;13.20;99.90
33717;DHT22;20046;50.746;7.072;2023-12-29T13:27:53;13.10;99.90
33717;DHT22;20046;50.746;7.072;2023-12-29T13:30:19;13.00;99.90
33717;DHT22;20046;50.746;7.072;2023-12-29T13:32:47;13.00;99.90
33717;DHT22;20046;50.746;7.072;2023-12-29T13:35:32;12.90;99.90
33717;DHT22;20046;50.746;7.072;2023-12-29T13:38:08;12.90;99.90
33717;DHT22;20046;50.746;7.072;2023-12-29T13:41:02;12.80;99.90
33717;DHT22;20046;50.746;7.072;2023-12-29T13:43:31;12.70;99.90
33717;DHT22;20046;50.746;7.072;2023-12-29T13:45:58;12.70;99.90
33717;DHT22;20046;50.746;7.072;2023-12-29T13:48:26;12.70;99.90
33717;DHT22;20046;50.746;7.072;2023-12-29T13:50:52;12.70;99.90
33717;DHT22;20046;50.746;7.072;2023-12-29T13:53:18;12.70;99.90
33717;DHT22;20046;50.746;7.072;2023-12-29T13:55:44;12.80;99.90
33717;DHT22;20046;50.746;7.072;2023-12-29T13:58:10;12.70;99.90
33717;DHT22;20046;50.746;7.072;2023-12-29T14:00:43;12.60;99.90
33717;DHT22;20046;50.746;7.072;2023-12-29T14:03:27;12.60;99.90
33717;DHT22;20046;50.746;7.072;2023-12-29T14:06:04;12.60;99.90
33717;DHT22;20046;50.746;7.072;2023-12-29T14:08:44;12.50;99.90
33717;DHT22;20046;50.746;7.072;2023-12-29T14:11:11;12.50;99.90
33717;DHT22;20046;50.746;7.072;2023-12-29T14:13:43;12.10;99.90
33717;DHT22;20046;50.746;7.072;2023-12-29T14:16:09;12.10;99.90
33717;DHT22;20046;50.746;7.072;2023-12-29T14:24:08;12.10;99.90
33717;DHT22;20046;50.746;7.072;2023-12-29T14:26:35;12.10;99.90
33717;DHT22;20046;50.746;7.072;2023-12-29T14:29:09;12.10;99.90
33717;DHT22;20046;50.746;7.072;2023-12-29T14:31:40;12.10;99.90
33717;DHT22;20046;50.746;7.072;2023-12-29T14:34:07;12.10;99.90
33717;DHT22;20046;50.746;7.072;2023-12-29T14:36:33;12.00;99.90
33717;DHT22;20046;50.746;7.072;2023-12-29T14:38:59;12.00;99.90
33717;DHT22;20046;50.746;7.072;2023-12-29T14:41:25;12.00;99.90
33717;DHT22;20046;50.746;7.072;2023-12-29T14:43:51;12.00;99.90
33717;DHT22;20046;50.746;7.072;2023-12-29T14:46:17;12.10;99.90
33717;DHT22;20046;50.746;7.072;2023-12-29T14:48:43;12.10;99.90
33717;DHT22;20046;50.746;7.072;2023-12-29T14:51:09;12.00;99.90
33717;DHT22;20046;50.746;7.072;2023-12-29T14:53:35;12.00;99.90
33717;DHT22;20046;50.746;7.072;2023-12-29T14:56:00;12.00;99.90
33717;DHT22;20046;50.746;7.072;2023-12-29T14:58:26;12.00;99.90
33717;DHT22;20046;50.746;7.072;2023-12-29T15:00:51;12.00;99.90
33717;DHT22;20046;50.746;7.072;2023-12-29T15:03:18;11.90;99.90
33717;DHT22;20046;50.746;7.072;2023-12-29T15:05:46;11.90;99.90
33717;DHT22;20046;50.746;7.072;2023-12-29T15:08:12;11.90;99.90
33717;DHT22;20046;50.746;7.072;2023-12-29T15:10:38;11.90;99.90
33717;DHT22;20046;50.746;7.072;2023-12-29T15:13:04;11.80;99.90
33717;DHT22;20046;50.746;7.072;2023-12-29T15:15:32;11.80;99.90
33717;DHT22;20046;50.746;7.072;2023-12-29T15:17:58;11.80;99.90
33717;DHT22;20046;50.746;7.072;2023-12-29T15:20:24;11.80;99.90
33717;DHT22;20046;50.746;7.072;2023-12-29T15:22:49;11.70;99.90
33717;DHT22;20046;50.746;7.072;2023-12-29T15:25:15;11.70;99.90
33717;DHT22;20046;50.746;7.072;2023-12-29T15:27:41;11.70;99.90
33717;DHT22;20046;50.746;7.072;2023-12-29T15:30:08;11.70;99.90
33717;DHT22;20046;50.746;7.072;2023-12-29T15:32:33;11.70;99.90
33717;DHT22;20046;50.746;7.072;2023-12-29T15:34:59;11.70;99.90
33717;DHT22;20046;50.746;7.072;2023-12-29T15:37:24;11.60;99.90
33717;DHT22;20046;50.746;7.072;2023-12-29T15:39:50;11.60;99.90
33717;DHT22;20046;50.746;7.072;2023-12-29T15:42:16;11.60;99.90
33717;DHT22;20046;50.746;7.072;2023-12-29T15:44:41;11.60;99.90
33717;DHT22;20046;50.746;7.072;2023-12-29T15:47:07;11.60;99.90
33717;DHT22;20046;50.746;7.072;2023-12-29T15:49:32;11.60;99.90
33717;DHT22;20046;50.746;7.072;2023-12-29T15:51:58;11.60;99.90
33717;DHT22;20046;50.746;7.072;2023-12-29T15:54:23;11.70;99.90